Time;durP1;ratioP1;P1;durP2;ratioP2;P2;SDS_P1;SDS_P2;PMS_P1;PMS_P2;Temp;Humidity;BMP_temperature;BMP_pressure;BME280_temperature;BME280_humidity;BME280_pressure;Samples;Min_cycle;Max_cycle;Signal;HPM_P1;HPM_P2
2023/06/25 00:01:57;;;;;;;9.37;6.60;;;19.10;99.90;;;;;;5094045;28;20256;-69
2023/06/25 00:04:22;;;;;;;6.73;6.10;;;19.10;99.90;;;;;;5093837;28;20180;-69
2023/06/25 00:06:48;;;;;;;7.00;6.40;;;19.10;99.90;;;;;;5093816;28;20276;-69
2023/06/25 00:09:13;;;;;;;7.10;6.45;;;19.10;99.90;;;;;;5093665;28;20215;-69
2023/06/25 00:11:39;;;;;;;6.63;6.07;;;19.10;99.90;;;;;;5093703;28;20182;-69
2023/06/25 00:14:05;;;;;;;6.90;6.30;;;19.10;99.90;;;;;;5075956;28;20272;-69
2023/06/25 00:16:33;;;;;;;6.75;6.22;;;19.10;99.90;;;;;;5075492;28;20197;-69
2023/06/25 00:19:00;;;;;;;7.00;6.27;;;19.00;99.90;;;;;;5092965;28;20647;-69
2023/06/25 00:21:26;;;;;;;7.53;7.00;;;19.00;99.90;;;;;;5093406;28;20177;-69
2023/06/25 00:23:51;;;;;;;9.43;7.00;;;19.00;99.90;;;;;;5093748;28;20174;-69
2023/06/25 00:26:17;;;;;;;8.02;7.43;;;18.90;99.90;;;;;;5093439;28;20583;-69
2023/06/25 00:28:43;;;;;;;7.17;6.60;;;18.90;99.90;;;;;;5093544;28;20181;-69
2023/06/25 00:31:08;;;;;;;6.83;6.37;;;18.80;99.90;;;;;;5092773;28;20188;-69
2023/06/25 00:33:34;;;;;;;6.47;5.83;;;18.80;99.90;;;;;;5093571;28;20259;-69
2023/06/25 00:36:06;;;;;;;6.70;6.20;;;18.70;99.90;;;;;;5093384;28;20272;-70
2023/06/25 00:38:38;;;;;;;6.90;6.20;;;18.70;99.90;;;;;;5093081;28;20647;-69
2023/06/25 00:41:09;;;;;;;6.50;5.67;;;18.70;99.90;;;;;;5092930;28;20177;-69
2023/06/25 00:43:35;;;;;;;6.03;5.43;;;18.70;99.90;;;;;;5092516;28;20205;-69
2023/06/25 00:46:01;;;;;;;6.47;5.97;;;18.60;99.90;;;;;;5092960;28;20678;-69
2023/06/25 00:48:27;;;;;;;6.80;6.30;;;18.60;99.90;;;;;;5093259;28;20180;-69
2023/06/25 00:50:53;;;;;;;7.90;7.30;;;18.60;99.90;;;;;;5074761;28;20182;-69
2023/06/25 00:53:20;;;;;;;7.17;6.67;;;18.50;99.90;;;;;;5092966;28;20528;-69
2023/06/25 00:55:50;;;;;;;7.30;6.70;;;18.50;99.90;;;;;;5074762;28;20208;-69
2023/06/25 00:58:20;;;;;;;6.53;6.03;;;18.50;99.90;;;;;;5093056;28;20165;-69
2023/06/25 01:00:47;;;;;;;6.27;5.67;;;18.50;99.90;;;;;;5074260;28;20185;-69
2023/06/25 01:03:29;;;;;;;6.30;5.87;;;18.50;99.90;;;;;;5091760;28;20252;-69
2023/06/25 01:06:12;;;;;;;6.73;6.23;;;18.50;99.90;;;;;;5084283;28;20350;-69
2023/06/25 01:08:39;;;;;;;5.77;5.27;;;18.50;99.90;;;;;;5092363;28;20193;-69
2023/06/25 01:11:05;;;;;;;6.47;5.90;;;18.50;99.90;;;;;;5092264;28;20185;-69
2023/06/25 01:13:31;;;;;;;7.10;6.60;;;18.50;99.90;;;;;;5093014;28;20625;-69
2023/06/25 01:15:57;;;;;;;6.53;6.03;;;18.40;99.90;;;;;;5092720;28;20209;-69
2023/06/25 01:18:23;;;;;;;6.60;6.10;;;18.40;99.90;;;;;;5092566;28;20676;-69
2023/06/25 01:20:56;;;;;;;6.70;6.03;;;18.40;99.90;;;;;;5092232;28;20174;-69
2023/06/25 01:23:22;;;;;;;6.60;6.10;;;18.40;99.90;;;;;;5092503;28;20170;-69
2023/06/25 01:25:48;;;;;;;6.43;5.83;;;18.30;99.90;;;;;;5092076;28;20687;-69
2023/06/25 01:28:14;;;;;;;6.47;5.97;;;18.20;99.90;;;;;;5092195;28;20205;-69
2023/06/25 01:30:40;;;;;;;6.80;6.13;;;18.20;99.90;;;;;;5091053;28;20582;-69
2023/06/25 01:33:05;;;;;;;8.50;6.30;;;18.20;99.90;;;;;;5091827;28;20174;-69
2023/06/25 01:35:31;;;;;;;6.70;6.20;;;18.20;99.90;;;;;;5092289;28;20189;-69
2023/06/25 01:37:58;;;;;;;6.83;6.23;;;18.20;99.90;;;;;;5092388;28;20176;-69
2023/06/25 01:40:24;;;;;;;7.00;6.40;;;18.10;99.90;;;;;;5092027;28;20173;-69
2023/06/25 01:42:52;;;;;;;6.67;5.90;;;18.10;99.90;;;;;;5090746;28;20185;-69
2023/06/25 01:45:18;;;;;;;7.03;6.43;;;18.10;99.90;;;;;;5092010;28;20189;-69
2023/06/25 01:47:43;;;;;;;7.80;7.20;;;18.10;99.90;;;;;;5091994;28;20224;-69
2023/06/25 01:50:09;;;;;;;7.10;6.50;;;18.10;99.90;;;;;;5091644;28;20165;-69
2023/06/25 01:52:35;;;;;;;10.63;6.83;;;18.10;99.90;;;;;;5091804;28;20165;-69
2023/06/25 01:55:00;;;;;;;7.00;6.40;;;18.10;99.90;;;;;;5091845;28;20294;-69
2023/06/25 01:57:26;;;;;;;6.30;5.73;;;18.00;99.90;;;;;;5091882;28;20256;-69
2023/06/25 01:59:52;;;;;;;7.00;6.50;;;18.00;99.90;;;;;;5091347;28;20212;-69
2023/06/25 02:02:17;;;;;;;6.83;6.10;;;18.00;99.90;;;;;;5091702;28;20189;-69
2023/06/25 02:04:43;;;;;;;7.03;6.43;;;18.00;99.90;;;;;;5091593;28;20671;-69
2023/06/25 02:07:08;;;;;;;7.70;6.30;;;17.90;99.90;;;;;;5091505;28;20242;-69
2023/06/25 02:09:34;;;;;;;6.63;6.03;;;17.90;99.90;;;;;;5091517;28;20196;-69
2023/06/25 02:12:00;;;;;;;7.47;6.83;;;17.90;99.90;;;;;;5073402;28;20752;-69
2023/06/25 02:14:25;;;;;;;7.67;7.03;;;17.90;99.90;;;;;;5091609;28;20173;-69
2023/06/25 02:16:51;;;;;;;7.30;6.60;;;17.90;99.90;;;;;;5091698;28;20213;-69
2023/06/25 02:19:16;;;;;;;7.33;6.63;;;17.90;99.90;;;;;;5091300;28;20173;-69
2023/06/25 02:21:42;;;;;;;7.40;6.33;;;17.80;99.90;;;;;;5091524;28;20251;-69
2023/06/25 02:24:08;;;;;;;6.87;6.27;;;17.80;99.90;;;;;;5091161;28;20181;-69
2023/06/25 02:26:33;;;;;;;7.77;6.53;;;17.80;99.90;;;;;;5091365;28;20209;-69
2023/06/25 02:28:59;;;;;;;6.77;6.27;;;17.70;99.90;;;;;;5091246;28;20173;-69
2023/06/25 02:31:24;;;;;;;6.53;5.77;;;17.60;99.90;;;;;;5091069;28;20312;-69
2023/06/25 02:33:50;;;;;;;7.20;6.47;;;17.60;99.90;;;;;;5091480;28;20164;-69
2023/06/25 02:36:16;;;;;;;7.27;6.50;;;17.60;99.90;;;;;;5091200;28;20229;-69
2023/06/25 02:38:41;;;;;;;7.77;7.07;;;17.50;99.90;;;;;;5091974;28;20239;-69
2023/06/25 02:41:07;;;;;;;7.73;7.13;;;17.50;99.90;;;;;;5093832;28;20184;-69
2023/06/25 02:43:32;;;;;;;7.40;6.70;;;17.60;99.90;;;;;;5097992;28;20174;-69
2023/06/25 02:45:58;;;;;;;8.20;7.47;;;17.50;99.90;;;;;;5098161;28;20181;-69
2023/06/25 02:48:24;;;;;;;9.03;7.57;;;17.50;99.90;;;;;;5098004;28;20209;-70
2023/06/25 02:50:49;;;;;;;8.47;7.70;;;17.50;99.90;;;;;;5097844;28;20165;-69
2023/06/25 02:53:15;;;;;;;8.30;7.30;;;17.50;99.90;;;;;;5079904;28;20177;-69
2023/06/25 02:55:41;;;;;;;8.30;6.23;;;17.40;99.90;;;;;;5097790;28;20627;-69
2023/06/25 02:58:06;;;;;;;7.37;6.63;;;17.40;99.90;;;;;;5097911;28;20639;-69
2023/06/25 03:00:32;;;;;;;7.67;6.97;;;17.40;99.90;;;;;;5097937;28;20172;-69
2023/06/25 03:02:57;;;;;;;7.43;6.70;;;17.40;99.90;;;;;;5098054;28;20203;-69
2023/06/25 03:05:23;;;;;;;11.70;7.07;;;17.40;99.90;;;;;;5097826;28;20538;-70
2023/06/25 03:07:53;;;;;;;9.10;6.50;;;17.40;99.90;;;;;;5097792;28;20609;-69
2023/06/25 03:10:19;;;;;;;7.50;6.73;;;17.40;99.90;;;;;;5097860;28;20157;-69
2023/06/25 03:12:45;;;;;;;9.67;6.53;;;17.50;99.90;;;;;;5097807;28;20169;-69
2023/06/25 03:15:10;;;;;;;7.97;7.17;;;17.50;99.90;;;;;;5097813;28;20189;-69
2023/06/25 03:17:36;;;;;;;9.10;8.27;;;17.50;99.90;;;;;;5097976;28;20193;-69
2023/06/25 03:20:03;;;;;;;8.40;6.87;;;17.50;99.90;;;;;;5097717;28;20204;-70
2023/06/25 03:22:29;;;;;;;9.20;7.97;;;17.50;99.90;;;;;;5097805;28;20225;-69
2023/06/25 03:24:54;;;;;;;8.13;7.47;;;17.50;99.90;;;;;;5097668;28;20201;-69
2023/06/25 03:27:20;;;;;;;9.10;8.13;;;17.50;99.90;;;;;;5097634;28;20189;-69
2023/06/25 03:29:46;;;;;;;7.90;6.83;;;17.50;99.90;;;;;;5097680;28;20205;-69
2023/06/25 03:32:11;;;;;;;6.97;6.40;;;17.50;99.90;;;;;;5097851;28;20166;-69
2023/06/25 03:34:37;;;;;;;7.57;6.87;;;17.60;99.90;;;;;;5097499;28;20209;-69
2023/06/25 03:37:02;;;;;;;8.23;7.40;;;17.60;99.90;;;;;;5097775;28;20173;-69
2023/06/25 03:39:28;;;;;;;8.47;7.17;;;17.60;99.90;;;;;;5097647;28;20631;-69
2023/06/25 03:41:53;;;;;;;7.23;6.73;;;17.60;99.90;;;;;;5097440;28;20208;-70
2023/06/25 03:44:19;;;;;;;10.63;7.50;;;17.60;99.90;;;;;;5097627;28;20227;-69
2023/06/25 03:46:45;;;;;;;8.20;7.40;;;17.70;99.90;;;;;;5097520;28;20414;-69
2023/06/25 03:49:10;;;;;;;8.83;7.30;;;17.70;99.90;;;;;;5097451;28;20173;-69
2023/06/25 03:51:36;;;;;;;8.77;7.30;;;17.70;99.90;;;;;;5097476;28;20642;-69
2023/06/25 03:54:01;;;;;;;9.30;6.50;;;17.70;99.90;;;;;;5093480;28;20166;-74
2023/06/25 03:56:27;;;;;;;8.27;6.83;;;17.70;99.90;;;;;;5097170;28;20201;-75
2023/06/25 03:58:52;;;;;;;7.90;7.10;;;17.80;99.90;;;;;;5097009;28;20184;-73
2023/06/25 04:01:18;;;;;;;11.87;6.87;;;17.80;99.90;;;;;;5095967;28;20173;-76
2023/06/25 04:03:44;;;;;;;7.10;6.00;;;17.80;99.90;;;;;;5094468;28;20624;-68
2023/06/25 04:06:09;;;;;;;7.73;6.93;;;17.80;99.90;;;;;;5093834;28;20197;-68
2023/06/25 04:08:38;;;;;;;6.63;6.07;;;17.80;99.90;;;;;;5094027;28;20651;-68
2023/06/25 04:11:04;;;;;;;10.93;7.53;;;17.80;99.90;;;;;;5093609;28;20158;-68
2023/06/25 04:13:29;;;;;;;7.60;7.00;;;17.90;99.90;;;;;;5093916;28;20168;-68
2023/06/25 04:15:55;;;;;;;7.83;5.97;;;17.90;99.90;;;;;;5093525;28;20209;-68
2023/06/25 04:18:20;;;;;;;8.03;6.03;;;17.90;99.90;;;;;;5093573;28;20173;-68
2023/06/25 04:20:46;;;;;;;8.50;5.87;;;18.00;99.90;;;;;;5093171;28;20590;-68
2023/06/25 04:23:11;;;;;;;7.63;6.07;;;18.00;99.90;;;;;;5093736;28;20170;-68
2023/06/25 04:25:37;;;;;;;8.60;5.83;;;18.00;99.90;;;;;;5093637;28;20650;-68
2023/06/25 04:28:03;;;;;;;7.67;6.87;;;18.00;99.90;;;;;;5093347;28;20205;-68
2023/06/25 04:30:28;;;;;;;9.03;6.73;;;18.10;99.90;;;;;;5093266;28;20169;-68
2023/06/25 04:32:54;;;;;;;7.83;7.27;;;18.10;99.90;;;;;;5093141;28;20436;-68
2023/06/25 04:35:20;;;;;;;8.43;7.60;;;18.10;99.90;;;;;;5093266;28;20178;-68
2023/06/25 04:37:45;;;;;;;7.70;6.90;;;18.20;99.90;;;;;;5093395;28;20184;-68
2023/06/25 04:40:12;;;;;;;9.37;8.60;;;18.30;99.90;;;;;;5092926;28;20184;-68
2023/06/25 04:42:38;;;;;;;11.93;8.47;;;18.50;99.90;;;;;;5093312;28;20203;-68
2023/06/25 04:45:04;;;;;;;9.80;7.40;;;18.80;99.90;;;;;;5075328;28;20190;-68
2023/06/25 04:47:31;;;;;;;10.80;9.57;;;19.10;99.90;;;;;;5093156;28;20208;-68
2023/06/25 04:49:57;;;;;;;13.32;10.05;;;19.40;99.90;;;;;;5074379;28;20180;-68
2023/06/25 04:52:23;;;;;;;10.27;8.65;;;19.50;99.90;;;;;;5093077;28;20173;-68
2023/06/25 04:54:49;;;;;;;9.40;8.55;;;19.80;99.90;;;;;;5092627;28;20379;-69
2023/06/25 04:57:15;;;;;;;9.48;8.55;;;19.90;99.90;;;;;;5092826;28;20185;-68
2023/06/25 04:59:41;;;;;;;10.90;8.73;;;20.10;99.90;;;;;;5092741;28;20177;-68
2023/06/25 05:02:06;;;;;;;9.55;7.60;;;20.40;99.90;;;;;;5092827;28;20639;-68
2023/06/25 05:04:32;;;;;;;13.43;11.35;;;20.60;99.90;;;;;;5092470;28;20249;-69
2023/06/25 05:06:58;;;;;;;21.33;19.95;;;20.80;99.90;;;;;;5092532;28;20365;-68
2023/06/25 05:09:24;;;;;;;113.97;17.88;;;21.10;99.90;;;;;;5092534;28;20727;-69
2023/06/25 05:11:49;;;;;;;8.18;5.45;;;21.30;99.90;;;;;;5092425;28;20185;-68
2023/06/25 05:14:15;;;;;;;10.55;8.38;;;21.50;99.90;;;;;;5092564;28;20639;-68
2023/06/25 05:16:40;;;;;;;10.10;8.52;;;21.70;99.90;;;;;;5092546;28;20276;-68
2023/06/25 05:19:06;;;;;;;8.40;7.60;;;21.90;99.90;;;;;;5092430;28;20173;-68
2023/06/25 05:21:31;;;;;;;10.00;9.02;;;22.10;99.90;;;;;;5092296;28;20554;-68
2023/06/25 05:23:59;;;;;;;9.48;8.55;;;22.30;99.90;;;;;;5092681;28;20174;-69
2023/06/25 05:26:25;;;;;;;11.88;10.25;;;22.50;99.90;;;;;;5092218;28;20209;-68
2023/06/25 05:28:51;;;;;;;13.93;12.52;;;22.60;99.90;;;;;;5092390;28;20180;-69
2023/06/25 05:31:16;;;;;;;11.20;8.95;;;22.60;99.90;;;;;;5091961;28;20170;-69
2023/06/25 05:33:42;;;;;;;10.77;9.00;;;22.60;99.90;;;;;;5092545;28;20606;-69
2023/06/25 05:36:07;;;;;;;10.27;8.38;;;22.60;99.90;;;;;;5092220;28;20228;-69
2023/06/25 05:38:33;;;;;;;9.95;8.95;;;22.60;99.90;;;;;;5092051;28;20174;-69
2023/06/25 05:40:58;;;;;;;11.10;10.13;;;22.70;99.90;;;;;;5091856;28;20177;-69
2023/06/25 05:43:24;;;;;;;10.13;9.02;;;22.70;99.90;;;;;;5091308;28;20731;-69
2023/06/25 05:45:49;;;;;;;10.63;9.57;;;22.90;99.90;;;;;;5092132;28;20585;-69
2023/06/25 05:48:15;;;;;;;9.05;8.15;;;23.10;99.90;;;;;;5092060;28;20205;-69
2023/06/25 05:50:41;;;;;;;12.02;8.57;;;23.30;99.90;;;;;;5091758;28;20173;-69
2023/06/25 05:53:07;;;;;;;9.02;8.15;;;23.60;99.90;;;;;;5092061;28;20165;-69
2023/06/25 05:55:33;;;;;;;11.77;10.13;;;23.90;99.90;;;;;;5091586;28;20557;-69
2023/06/25 05:57:58;;;;;;;12.35;9.65;;;24.20;99.90;;;;;;5091945;28;20173;-69
2023/06/25 06:00:24;;;;;;;9.88;8.98;;;24.40;99.90;;;;;;5091862;28;20213;-69
2023/06/25 06:02:49;;;;;;;11.00;7.45;;;24.60;99.90;;;;;;5091805;28;20173;-69
2023/06/25 06:05:15;;;;;;;9.88;6.95;;;25.00;99.90;;;;;;5090986;28;20632;-69
2023/06/25 06:07:41;;;;;;;10.35;7.57;;;25.30;99.90;;;;;;5073166;28;20211;-69
2023/06/25 06:10:06;;;;;;;7.85;7.13;;;25.60;99.90;;;;;;5089541;28;20223;-69
2023/06/25 06:12:32;;;;;;;8.68;7.47;;;25.80;99.90;;;;;;5091750;28;20249;-69
2023/06/25 06:14:58;;;;;;;9.95;9.05;;;26.00;99.90;;;;;;5091090;28;20234;-69
2023/06/25 06:17:23;;;;;;;7.78;7.00;;;26.10;99.90;;;;;;5090713;28;20607;-69
2023/06/25 06:19:49;;;;;;;7.70;6.88;;;26.40;99.90;;;;;;5091137;28;20205;-68
2023/06/25 06:22:16;;;;;;;8.70;7.60;;;26.70;99.90;;;;;;5091511;28;20169;-69
2023/06/25 06:24:42;;;;;;;9.55;8.57;;;26.80;99.90;;;;;;5091339;28;20280;-69
2023/06/25 06:27:08;;;;;;;9.50;8.10;;;26.90;99.90;;;;;;5091339;28;20784;-69
2023/06/25 06:29:34;;;;;;;7.47;6.70;;;27.00;99.90;;;;;;5091053;28;20603;-68
2023/06/25 06:31:59;;;;;;;8.07;6.70;;;27.10;99.90;;;;;;5091395;28;20214;-69
2023/06/25 06:34:25;;;;;;;6.95;6.25;;;27.20;99.90;;;;;;5090977;28;20627;-69
2023/06/25 06:36:51;;;;;;;10.70;8.15;;;27.30;99.90;;;;;;5091395;28;20181;-69
2023/06/25 06:39:17;;;;;;;8.30;7.13;;;27.40;99.90;;;;;;5090950;28;20172;-68
2023/06/25 06:41:43;;;;;;;8.60;7.38;;;27.60;99.90;;;;;;5072262;28;20177;-69
2023/06/25 06:44:19;;;;;;;8.48;7.47;;;27.70;99.90;;;;;;5091244;28;20177;-68
2023/06/25 06:46:45;;;;;;;8.10;7.30;;;27.90;99.90;;;;;;5090939;28;20250;-68
2023/06/25 06:49:11;;;;;;;11.98;7.32;;;27.90;99.90;;;;;;5090841;28;20165;-68
2023/06/25 06:51:38;;;;;;;11.20;6.40;;;28.00;99.90;;;;;;5091250;28;20227;-68
2023/06/25 06:54:06;;;;;;;8.13;7.32;;;28.10;99.90;;;;;;5091444;28;20173;-68
2023/06/25 06:56:33;;;;;;;8.27;7.57;;;28.30;99.90;;;;;;5090979;28;20186;-68
2023/06/25 06:58:59;;;;;;;8.32;7.53;;;28.40;99.90;;;;;;5091703;28;20203;-68
2023/06/25 07:01:25;;;;;;;8.35;7.45;;;28.70;99.90;;;;;;5090638;28;20639;-68
2023/06/25 07:03:51;;;;;;;8.23;7.07;;;28.90;99.90;;;;;;5091290;28;20591;-68
2023/06/25 07:06:17;;;;;;;6.82;6.13;;;29.10;99.90;;;;;;5090798;28;20209;-68
2023/06/25 07:08:42;;;;;;;7.35;6.65;;;29.30;99.90;;;;;;5090941;28;20611;-68
2023/06/25 07:11:08;;;;;;;6.72;6.10;;;29.60;99.90;;;;;;5090447;28;20170;-69
2023/06/25 07:13:33;;;;;;;6.35;5.78;;;29.90;99.90;;;;;;5090930;28;20161;-69
2023/06/25 07:15:59;;;;;;;6.47;5.82;;;30.20;99.90;;;;;;5090918;28;20659;-69
2023/06/25 07:18:24;;;;;;;7.47;6.07;;;30.40;99.90;;;;;;5090589;28;20227;-68
2023/06/25 07:20:50;;;;;;;7.15;5.55;;;30.70;99.90;;;;;;5090623;28;20174;-67
2023/06/25 07:23:16;;;;;;;6.10;5.57;;;30.90;99.90;;;;;;5090956;28;20248;-68
2023/06/25 07:25:42;;;;;;;6.60;6.03;;;31.10;99.90;;;;;;5089754;28;20550;-68
2023/06/25 07:28:09;;;;;;;6.07;5.40;;;31.50;99.90;;;;;;5091999;28;20197;-67
2023/06/25 07:30:35;;;;;;;8.27;5.55;;;31.80;99.90;;;;;;5094544;28;20169;-68
2023/06/25 07:33:00;;;;;;;5.97;5.38;;;31.80;99.90;;;;;;5094566;28;20196;-68
2023/06/25 07:35:26;;;;;;;6.75;6.05;;;31.90;99.90;;;;;;5094575;28;20224;-68
2023/06/25 07:37:52;;;;;;;7.20;5.50;;;31.70;99.90;;;;;;5093614;28;20244;-68
2023/06/25 07:40:17;;;;;;;6.90;5.68;;;31.80;99.90;;;;;;5094309;28;20177;-68
2023/06/25 07:42:43;;;;;;;7.72;5.85;;;31.90;99.90;;;;;;5094478;28;20252;-68
2023/06/25 07:45:09;;;;;;;7.07;6.38;;;32.20;99.90;;;;;;5093734;28;20216;-68
2023/06/25 07:47:35;;;;;;;7.28;6.22;;;32.40;99.90;;;;;;5094155;28;20201;-68
2023/06/25 07:50:01;;;;;;;7.03;6.32;;;32.40;99.90;;;;;;5091155;28;20177;-68
2023/06/25 07:52:26;;;;;;;7.13;6.60;;;32.20;99.90;;;;;;5094449;28;20565;-68
2023/06/25 07:54:53;;;;;;;10.07;9.18;;;32.20;99.90;;;;;;5094261;28;20189;-67
2023/06/25 07:57:19;;;;;;;8.52;7.82;;;32.50;99.90;;;;;;5094264;28;20174;-68
2023/06/25 07:59:44;;;;;;;6.78;5.70;;;32.50;99.90;;;;;;5093037;28;20662;-67
2023/06/25 08:02:10;;;;;;;8.63;7.93;;;32.70;99.90;;;;;;5093875;28;20177;-67
2023/06/25 08:04:36;;;;;;;7.18;6.57;;;32.70;99.90;;;;;;5094145;28;20685;-67
2023/06/25 08:07:02;;;;;;;5.88;5.30;;;33.00;99.90;;;;;;5094025;28;20205;-67
2023/06/25 08:09:27;;;;;;;6.35;4.75;;;33.30;99.90;;;;;;5092817;28;20241;-67
2023/06/25 08:11:53;;;;;;;5.78;4.82;;;33.60;99.90;;;;;;5093901;28;20181;-68
2023/06/25 08:14:19;;;;;;;7.10;5.60;;;33.90;99.90;;;;;;5093866;28;21011;-67
2023/06/25 08:16:44;;;;;;;6.10;5.53;;;34.00;99.90;;;;;;5093733;28;20189;-67
2023/06/25 08:19:10;;;;;;;5.47;4.97;;;34.00;99.90;;;;;;5093562;28;20274;-67
2023/06/25 08:21:35;;;;;;;6.97;5.68;;;33.90;99.90;;;;;;5093649;28;20168;-67
2023/06/25 08:24:01;;;;;;;6.20;5.60;;;33.90;99.90;;;;;;5093663;28;20226;-67
2023/06/25 08:26:27;;;;;;;6.60;6.00;;;33.90;99.90;;;;;;5093510;28;20201;-67
2023/06/25 08:28:52;;;;;;;6.03;4.95;;;33.70;99.90;;;;;;5093372;28;20239;-67
2023/06/25 08:31:18;;;;;;;6.13;5.72;;;33.80;99.90;;;;;;5093317;28;20508;-67
2023/06/25 08:33:44;;;;;;;7.15;6.60;;;33.90;99.90;;;;;;5093701;28;20181;-67
2023/06/25 08:36:09;;;;;;;7.72;6.63;;;34.10;99.90;;;;;;5093502;28;20267;-67
2023/06/25 08:38:36;;;;;;;6.95;6.35;;;34.30;99.90;;;;;;5093732;28;20177;-67
2023/06/25 08:41:02;;;;;;;6.60;6.03;;;34.60;99.90;;;;;;5092944;28;20173;-67
2023/06/25 08:43:28;;;;;;;5.80;5.30;;;35.00;99.90;;;;;;5093294;28;20209;-67
2023/06/25 08:45:54;;;;;;;5.78;4.70;;;35.10;99.90;;;;;;5093310;28;20231;-68
2023/06/25 08:48:22;;;;;;;6.93;6.32;;;35.10;99.90;;;;;;5074612;28;20747;-67
2023/06/25 08:51:03;;;;;;;8.07;6.57;;;35.00;99.90;;;;;;5092901;28;20649;-68
2023/06/25 08:53:28;;;;;;;6.38;5.78;;;34.90;99.90;;;;;;5093220;28;20531;-67
2023/06/25 08:55:56;;;;;;;6.63;6.05;;;34.90;99.90;;;;;;5093018;28;20185;-67
2023/06/25 08:58:22;;;;;;;6.05;5.53;;;34.60;99.90;;;;;;5092918;28;20178;-67
2023/06/25 09:00:48;;;;;;;6.80;6.20;;;34.50;99.90;;;;;;5074757;28;20266;-68
2023/06/25 09:03:14;;;;;;;6.60;5.72;;;34.50;99.90;;;;;;5092928;28;20383;-68
2023/06/25 09:05:50;;;;;;;5.40;4.90;;;34.70;99.90;;;;;;5093131;28;20196;-68
2023/06/25 09:08:16;;;;;;;5.28;4.88;;;34.90;99.90;;;;;;5073629;28;20213;-67
2023/06/25 09:10:41;;;;;;;5.47;4.32;;;35.20;99.90;;;;;;5092356;28;20545;-68
2023/06/25 09:13:07;;;;;;;5.03;4.53;;;35.50;99.90;;;;;;5091182;28;20174;-67
2023/06/25 09:15:32;;;;;;;5.43;4.93;;;35.90;99.90;;;;;;5092676;28;20189;-67
2023/06/25 09:17:58;;;;;;;6.57;6.03;;;36.50;99.90;;;;;;5092796;28;20177;-67
2023/06/25 09:20:24;;;;;;;5.15;4.75;;;36.80;98.50;;;;;;5092143;28;20192;-67
2023/06/25 09:22:54;;;;;;;5.43;4.93;;;36.80;97.20;;;;;;5092560;28;20268;-68
2023/06/25 09:25:21;;;;;;;6.18;5.18;;;36.90;97.90;;;;;;5091757;28;20205;-67
2023/06/25 09:27:48;;;;;;;5.00;4.60;;;37.00;98.70;;;;;;5092427;28;20612;-67
2023/06/25 09:30:14;;;;;;;6.28;5.65;;;37.20;97.80;;;;;;5091922;28;20647;-67
2023/06/25 09:32:50;;;;;;;5.45;4.63;;;37.20;96.90;;;;;;5092422;28;20169;-67
2023/06/25 09:35:25;;;;;;;8.48;4.93;;;37.20;96.20;;;;;;5091894;28;20235;-68
2023/06/25 09:37:52;;;;;;;6.10;5.15;;;37.20;95.90;;;;;;5092125;28;20264;-67
2023/06/25 09:40:21;;;;;;;5.05;4.65;;;37.10;96.20;;;;;;5092344;28;20178;-67
2023/06/25 09:42:54;;;;;;;5.38;4.93;;;37.50;96.40;;;;;;5092249;28;20173;-67
2023/06/25 09:45:21;;;;;;;5.22;4.82;;;37.60;93.70;;;;;;5091975;28;20193;-67
2023/06/25 09:47:49;;;;;;;5.00;4.50;;;37.70;94.30;;;;;;5092160;28;20555;-67
2023/06/25 09:50:17;;;;;;;5.97;5.43;;;38.00;92.90;;;;;;5091101;28;20180;-68
2023/06/25 09:52:50;;;;;;;5.78;5.38;;;37.90;92.90;;;;;;5091989;28;20182;-68
2023/06/25 09:55:17;;;;;;;5.72;5.22;;;38.10;92.60;;;;;;5091384;28;20236;-67
2023/06/25 09:57:43;;;;;;;6.32;5.93;;;38.00;91.30;;;;;;5092123;28;20193;-68
2023/06/25 10:00:10;;;;;;;6.18;5.78;;;37.80;91.70;;;;;;5091946;28;20581;-68
2023/06/25 10:02:37;;;;;;;5.55;5.05;;;37.70;92.60;;;;;;5091927;28;20252;-67
2023/06/25 10:05:03;;;;;;;5.75;5.20;;;37.90;90.30;;;;;;5091283;28;20201;-67
2023/06/25 10:07:30;;;;;;;6.20;5.70;;;38.00;91.90;;;;;;5091246;28;20799;-68
2023/06/25 10:09:56;;;;;;;4.82;4.40;;;38.30;90.50;;;;;;5090191;28;20181;-69
2023/06/25 10:12:22;;;;;;;4.82;4.43;;;38.20;88.10;;;;;;5091607;28;20172;-68
2023/06/25 10:14:48;;;;;;;5.43;4.88;;;38.10;87.70;;;;;;5091673;28;20197;-68
2023/06/25 10:17:14;;;;;;;5.55;5.13;;;38.00;89.00;;;;;;5091341;28;20730;-68
2023/06/25 10:19:56;;;;;;;5.47;4.97;;;38.00;90.80;;;;;;5091520;28;20181;-68
2023/06/25 10:22:26;;;;;;;6.28;5.78;;;38.10;90.20;;;;;;5091669;28;20723;-68
2023/06/25 10:24:53;;;;;;;5.10;4.70;;;38.10;88.50;;;;;;5091364;28;20206;-68
2023/06/25 10:27:24;;;;;;;5.45;5.00;;;38.00;90.10;;;;;;5091556;28;20192;-68
2023/06/25 10:29:54;;;;;;;6.40;5.72;;;38.00;84.70;;;;;;5091169;28;20647;-68
2023/06/25 10:32:20;;;;;;;6.00;5.55;;;37.80;90.70;;;;;;5091873;28;20235;-68
2023/06/25 10:34:52;;;;;;;5.53;5.03;;;37.90;89.90;;;;;;5091455;28;20637;-68
2023/06/25 10:37:18;;;;;;;5.10;4.70;;;38.00;85.30;;;;;;5091102;28;20686;-68
2023/06/25 10:39:43;;;;;;;4.97;4.18;;;38.20;85.60;;;;;;5091118;28;20173;-68
2023/06/25 10:42:11;;;;;;;5.95;4.30;;;38.40;84.00;;;;;;5091064;28;20169;-68
2023/06/25 10:44:37;;;;;;;5.57;4.40;;;38.70;81.70;;;;;;5091336;28;20168;-68
2023/06/25 10:47:07;;;;;;;4.65;4.10;;;38.90;83.90;;;;;;5090805;28;20193;-68
2023/06/25 10:49:34;;;;;;;4.32;3.92;;;39.10;81.10;;;;;;5091105;28;20180;-68
2023/06/25 10:52:01;;;;;;;4.75;4.35;;;39.00;79.00;;;;;;5091229;28;20177;-68
2023/06/25 10:54:26;;;;;;;3.95;3.55;;;38.90;83.20;;;;;;5091199;28;20197;-68
2023/06/25 10:57:06;;;;;;;4.13;3.78;;;39.00;80.20;;;;;;5090555;28;20217;-68
2023/06/25 10:59:31;;;;;;;5.63;4.95;;;39.20;78.10;;;;;;5091159;28;20168;-68
2023/06/25 11:02:17;;;;;;;5.15;3.95;;;39.20;80.20;;;;;;5091933;28;20643;-68
2023/06/25 11:04:56;;;;;;;4.47;4.18;;;39.40;80.10;;;;;;5095341;28;20246;-67
2023/06/25 11:07:23;;;;;;;4.55;4.00;;;39.50;77.00;;;;;;5095267;28;20279;-67
2023/06/25 11:10:00;;;;;;;4.28;3.92;;;39.60;78.30;;;;;;5094415;28;20257;-68
2023/06/25 11:12:26;;;;;;;4.45;4.05;;;39.80;76.90;;;;;;5095217;28;20260;-68
2023/06/25 11:14:52;;;;;;;5.35;4.28;;;39.40;71.80;;;;;;5094810;28;20307;-67
2023/06/25 11:17:17;;;;;;;4.43;4.00;;;39.00;80.00;;;;;;5094941;28;20252;-69
2023/06/25 11:19:49;;;;;;;5.03;4.55;;;39.00;71.90;;;;;;5094804;28;20165;-69
2023/06/25 11:22:15;;;;;;;5.85;4.30;;;39.20;79.60;;;;;;5095092;28;20177;-67
2023/06/25 11:24:40;;;;;;;4.40;4.00;;;38.90;68.70;;;;;;5094908;28;20650;-68
2023/06/25 11:27:06;;;;;;;4.90;4.40;;;38.80;74.10;;;;;;5094869;28;20169;-67
2023/06/25 11:29:39;;;;;;;5.75;4.32;;;39.00;72.50;;;;;;5094767;28;20180;-68
2023/06/25 11:32:09;;;;;;;4.65;4.25;;;39.10;75.60;;;;;;5094815;28;20175;-68
2023/06/25 11:34:35;;;;;;;4.72;3.90;;;38.90;77.50;;;;;;5094838;28;20170;-67
2023/06/25 11:37:14;;;;;;;4.47;4.03;;;38.70;73.70;;;;;;5094674;28;20197;-68
2023/06/25 11:39:50;;;;;;;7.03;4.32;;;38.40;73.30;;;;;;5094493;28;20169;-67
2023/06/25 11:42:18;;;;;;;4.30;4.00;;;38.20;73.70;;;;;;5076243;28;20173;-68
2023/06/25 11:44:45;;;;;;;4.13;3.83;;;38.40;73.40;;;;;;5094514;28;20193;-68
2023/06/25 11:47:13;;;;;;;4.32;3.92;;;38.70;69.60;;;;;;5094017;28;20177;-67
2023/06/25 11:49:39;;;;;;;4.40;4.07;;;38.90;70.30;;;;;;5094353;28;20592;-68
2023/06/25 11:52:05;;;;;;;4.20;3.75;;;39.00;72.40;;;;;;5094297;28;20256;-67
2023/06/25 11:54:31;;;;;;;4.95;4.55;;;39.30;70.90;;;;;;5094386;28;20643;-67
2023/06/25 11:56:57;;;;;;;4.40;4.05;;;39.30;69.60;;;;;;5094144;28;20267;-68
2023/06/25 11:59:22;;;;;;;4.45;4.00;;;39.50;71.00;;;;;;5093717;28;20218;-68
2023/06/25 12:01:49;;;;;;;4.70;4.05;;;39.60;68.40;;;;;;5094419;28;20580;-67
2023/06/25 12:04:14;;;;;;;5.28;4.78;;;40.10;74.20;;;;;;5094506;28;20245;-68
2023/06/25 12:06:40;;;;;;;5.95;5.43;;;40.70;74.00;;;;;;5093997;28;20268;-68
2023/06/25 12:09:06;;;;;;;5.60;5.07;;;40.90;66.50;;;;;;5093913;28;20185;-68
2023/06/25 12:11:31;;;;;;;4.90;4.50;;;40.60;63.90;;;;;;5093929;28;20624;-68
2023/06/25 12:13:57;;;;;;;5.50;5.10;;;40.20;61.90;;;;;;5093251;28;20165;-67
2023/06/25 12:16:23;;;;;;;7.20;5.07;;;39.80;70.80;;;;;;5093823;28;20246;-67
2023/06/25 12:18:48;;;;;;;4.35;4.05;;;39.60;63.00;;;;;;5093943;28;20193;-68
2023/06/25 12:21:14;;;;;;;5.00;4.60;;;39.60;70.80;;;;;;5093329;28;20271;-67
2023/06/25 12:23:40;;;;;;;5.40;4.90;;;39.50;67.90;;;;;;5094034;28;20170;-67
2023/06/25 12:26:05;;;;;;;4.95;4.65;;;39.50;66.00;;;;;;5093750;28;20205;-67
2023/06/25 12:28:31;;;;;;;5.70;5.20;;;39.40;69.10;;;;;;5093726;28;20542;-68
2023/06/25 12:30:56;;;;;;;6.18;5.68;;;39.10;68.10;;;;;;5093374;28;20256;-68
2023/06/25 12:33:22;;;;;;;4.38;4.07;;;39.10;66.00;;;;;;5093653;28;20176;-68
2023/06/25 12:35:48;;;;;;;4.53;4.13;;;39.20;64.70;;;;;;5093600;28;20185;-68
2023/06/25 12:38:13;;;;;;;5.18;4.68;;;39.30;69.20;;;;;;5093274;28;20215;-68
2023/06/25 12:40:39;;;;;;;6.53;5.20;;;39.40;65.70;;;;;;5093080;28;20252;-67
2023/06/25 12:43:04;;;;;;;5.30;4.80;;;39.20;62.40;;;;;;5093244;28;20252;-67